sensor_id;sensor_type;location;lat;lon;timestamp;pressure;altitude;pressure_sealevel;temperature;humidity
7748;BME280;3918;42.564;23.164;2022-08-01T05:01:51;-11650.84;;;-142.29;45.36
7748;BME280;3918;42.564;23.164;2022-08-01T05:04:18;-11650.84;;;-142.29;45.51
7748;BME280;3918;42.564;23.164;2022-08-01T05:06:44;-11650.84;;;-142.29;45.34
7748;BME280;3918;42.564;23.164;2022-08-01T05:09:11;-11650.84;;;-142.29;43.53
7748;BME280;3918;42.564;23.164;2022-08-01T05:11:38;-11650.84;;;-142.29;44.08
7748;BME280;3918;42.564;23.164;2022-08-01T05:14:05;-11650.84;;;-142.29;43.92
7748;BME280;3918;42.564;23.164;2022-08-01T05:16:32;-11650.84;;;-142.29;43.43
7748;BME280;3918;42.564;23.164;2022-08-01T05:19:00;-11650.84;;;-142.29;42.59
7748;BME280;3918;42.564;23.164;2022-08-01T05:21:28;-11650.84;;;-142.29;42.06
7748;BME280;3918;42.564;23.164;2022-08-01T05:23:54;-11650.84;;;-142.29;41.25
7748;BME280;3918;42.564;23.164;2022-08-01T05:26:21;-11650.84;;;-142.29;40.92
7748;BME280;3918;42.564;23.164;2022-08-01T05:28:48;-11650.84;;;-142.29;39.71
7748;BME280;3918;42.564;23.164;2022-08-01T05:31:15;-11650.84;;;-142.29;38.66
7748;BME280;3918;42.564;23.164;2022-08-01T05:33:42;-11650.84;;;-142.29;35.12
7748;BME280;3918;42.564;23.164;2022-08-01T05:36:10;-11650.84;;;-142.29;34.00
7748;BME280;3918;42.564;23.164;2022-08-01T05:38:37;-11650.84;;;-142.29;34.67
7748;BME280;3918;42.564;23.164;2022-08-01T05:41:04;-11650.84;;;-142.29;35.02
7748;BME280;3918;42.564;23.164;2022-08-01T05:43:31;-11650.84;;;-142.29;34.59
7748;BME280;3918;42.564;23.164;2022-08-01T05:45:57;-11650.84;;;-142.29;33.62
7748;BME280;3918;42.564;23.164;2022-08-01T05:48:24;-11650.84;;;-142.29;33.64
7748;BME280;3918;42.564;23.164;2022-08-01T05:50:51;-11650.84;;;-142.29;33.33
7748;BME280;3918;42.564;23.164;2022-08-01T05:53:19;-11650.84;;;-142.29;33.13
7748;BME280;3918;42.564;23.164;2022-08-01T05:55:46;-11650.84;;;-142.29;32.88
7748;BME280;3918;42.564;23.164;2022-08-01T05:58:13;-11650.84;;;-142.29;31.48
7748;BME280;3918;42.564;23.164;2022-08-01T06:00:40;-11650.84;;;-142.29;31.25
7748;BME280;3918;42.564;23.164;2022-08-01T06:03:06;-11650.84;;;-142.29;31.73
7748;BME280;3918;42.564;23.164;2022-08-01T06:05:33;-11650.84;;;-142.29;32.21
7748;BME280;3918;42.564;23.164;2022-08-01T06:08:00;-11650.84;;;-142.29;31.98
7748;BME280;3918;42.564;23.164;2022-08-01T06:10:28;-11650.84;;;-142.29;32.57
7748;BME280;3918;42.564;23.164;2022-08-01T06:12:55;-11650.84;;;-142.29;31.50
7748;BME280;3918;42.564;23.164;2022-08-01T06:15:22;-11650.84;;;-142.29;32.39
7748;BME280;3918;42.564;23.164;2022-08-01T06:17:48;-11650.84;;;-142.29;31.31
7748;BME280;3918;42.564;23.164;2022-08-01T06:20:15;-11650.84;;;-142.29;31.41
7748;BME280;3918;42.564;23.164;2022-08-01T06:22:42;-11650.84;;;-142.29;31.29
7748;BME280;3918;42.564;23.164;2022-08-01T06:25:09;-11650.84;;;-142.29;32.39
7748;BME280;3918;42.564;23.164;2022-08-01T06:27:37;-11650.84;;;-142.29;32.49
7748;BME280;3918;42.564;23.164;2022-08-01T06:30:05;-11650.84;;;-142.29;31.96
7748;BME280;3918;42.564;23.164;2022-08-01T06:32:33;-11650.84;;;-142.29;31.41
7748;BME280;3918;42.564;23.164;2022-08-01T06:34:59;-11650.84;;;-142.29;31.04
7748;BME280;3918;42.564;23.164;2022-08-01T06:37:28;-11650.84;;;-142.29;32.32
7748;BME280;3918;42.564;23.164;2022-08-01T06:39:55;-11650.84;;;-142.29;32.06
7748;BME280;3918;42.564;23.164;2022-08-01T06:42:22;-11650.84;;;-142.29;33.97
7748;BME280;3918;42.564;23.164;2022-08-01T06:44:51;-11650.84;;;-142.29;32.59
7748;BME280;3918;42.564;23.164;2022-08-01T06:47:18;-11650.84;;;-142.29;32.13
7748;BME280;3918;42.564;23.164;2022-08-01T06:49:45;-11650.84;;;-142.29;31.25
7748;BME280;3918;42.564;23.164;2022-08-01T06:52:12;-11650.84;;;-142.29;31.61
7748;BME280;3918;42.564;23.164;2022-08-01T06:54:39;-11650.84;;;-142.29;31.82
7748;BME280;3918;42.564;23.164;2022-08-01T06:57:06;-11650.84;;;-142.29;32.73
7748;BME280;3918;42.564;23.164;2022-08-01T06:59:33;-11650.84;;;-142.29;31.49
7748;BME280;3918;42.564;23.164;2022-08-01T07:02:02;-11650.84;;;-142.29;32.07
7748;BME280;3918;42.564;23.164;2022-08-01T07:04:28;-11650.84;;;-142.29;34.85
7748;BME280;3918;42.564;23.164;2022-08-01T07:06:55;-11650.84;;;-142.29;36.22
7748;BME280;3918;42.564;23.164;2022-08-01T07:09:22;-11650.84;;;-142.29;35.68
7748;BME280;3918;42.564;23.164;2022-08-01T07:11:49;-11650.84;;;-142.29;33.32
7748;BME280;3918;42.564;23.164;2022-08-01T07:14:17;-11650.84;;;-142.29;35.24
7748;BME280;3918;42.564;23.164;2022-08-01T07:16:44;-11650.84;;;-142.29;36.58
7748;BME280;3918;42.564;23.164;2022-08-01T07:19:12;-11650.84;;;-142.29;35.47
7748;BME280;3918;42.564;23.164;2022-08-01T07:21:39;-11650.84;;;-142.29;35.74
7748;BME280;3918;42.564;23.164;2022-08-01T07:24:07;-11650.84;;;-142.29;35.29
7748;BME280;3918;42.564;23.164;2022-08-01T07:26:34;-11650.84;;;-142.29;34.92
7748;BME280;3918;42.564;23.164;2022-08-01T07:29:01;-11650.84;;;-142.29;36.45
7748;BME280;3918;42.564;23.164;2022-08-01T07:31:29;-11650.84;;;-142.29;36.82
7748;BME280;3918;42.564;23.164;2022-08-01T07:33:56;-11650.84;;;-142.29;36.41
7748;BME280;3918;42.564;23.164;2022-08-01T07:36:24;-11650.84;;;-142.29;36.77
7748;BME280;3918;42.564;23.164;2022-08-01T07:38:51;-11650.84;;;-142.29;37.70
7748;BME280;3918;42.564;23.164;2022-08-01T07:41:17;-11650.84;;;-142.29;37.46
7748;BME280;3918;42.564;23.164;2022-08-01T07:43:44;-11650.84;;;-142.29;37.83
7748;BME280;3918;42.564;23.164;2022-08-01T07:46:12;-11650.84;;;-142.29;39.85
7748;BME280;3918;42.564;23.164;2022-08-01T07:48:39;-11650.84;;;-142.29;36.68
7748;BME280;3918;42.564;23.164;2022-08-01T07:51:06;-11650.84;;;-142.29;36.84
7748;BME280;3918;42.564;23.164;2022-08-01T07:53:35;-11650.84;;;-142.29;35.87
7748;BME280;3918;42.564;23.164;2022-08-01T07:56:01;-11650.84;;;-142.29;37.70
7748;BME280;3918;42.564;23.164;2022-08-01T07:58:30;-11650.84;;;-142.29;37.00
7748;BME280;3918;42.564;23.164;2022-08-01T08:00:57;-11650.84;;;-142.29;39.76
7748;BME280;3918;42.564;23.164;2022-08-01T08:03:24;-11650.84;;;-142.29;39.57
7748;BME280;3918;42.564;23.164;2022-08-01T08:05:51;-11650.84;;;-142.29;36.38
7748;BME280;3918;42.564;23.164;2022-08-01T08:08:18;-11650.84;;;-142.29;37.60
7748;BME280;3918;42.564;23.164;2022-08-01T08:10:47;-11650.84;;;-142.29;38.14
7748;BME280;3918;42.564;23.164;2022-08-01T08:13:14;-11650.84;;;-142.29;37.48
7748;BME280;3918;42.564;23.164;2022-08-01T08:15:40;-11650.84;;;-142.29;38.71
7748;BME280;3918;42.564;23.164;2022-08-01T08:18:07;-11650.84;;;-142.29;36.72
7748;BME280;3918;42.564;23.164;2022-08-01T08:20:34;-11650.84;;;-142.29;36.67
7748;BME280;3918;42.564;23.164;2022-08-01T08:23:01;-11650.84;;;-142.29;36.03
7748;BME280;3918;42.564;23.164;2022-08-01T08:25:49;-11650.84;;;-142.29;37.79
7748;BME280;3918;42.564;23.164;2022-08-01T08:28:16;-11650.84;;;-142.29;39.58
7748;BME280;3918;42.564;23.164;2022-08-01T08:30:42;-11650.84;;;-142.29;41.68
7748;BME280;3918;42.564;23.164;2022-08-01T08:33:09;-11650.84;;;-142.29;43.73
7748;BME280;3918;42.564;23.164;2022-08-01T08:35:38;-11650.84;;;-142.29;43.45
7748;BME280;3918;42.564;23.164;2022-08-01T08:38:05;-11650.84;;;-142.29;43.78
7748;BME280;3918;42.564;23.164;2022-08-01T08:40:35;-11650.84;;;-142.29;44.28
7748;BME280;3918;42.564;23.164;2022-08-01T08:43:04;-11650.84;;;-142.29;44.67
7748;BME280;3918;42.564;23.164;2022-08-01T08:45:31;-11650.84;;;-142.29;45.37
7748;BME280;3918;42.564;23.164;2022-08-01T08:47:58;-11650.84;;;-142.29;45.91
7748;BME280;3918;42.564;23.164;2022-08-01T08:50:26;-11650.84;;;-142.29;46.06
7748;BME280;3918;42.564;23.164;2022-08-01T08:52:54;-11650.84;;;-142.29;44.96
7748;BME280;3918;42.564;23.164;2022-08-01T08:55:22;-11650.84;;;-142.29;45.85
7748;BME280;3918;42.564;23.164;2022-08-01T08:57:50;-11650.84;;;-142.29;42.65
7748;BME280;3918;42.564;23.164;2022-08-01T09:00:19;-11650.84;;;-142.29;41.07
7748;BME280;3918;42.564;23.164;2022-08-01T09:02:47;-11650.84;;;-142.29;41.33
7748;BME280;3918;42.564;23.164;2022-08-01T09:05:15;-11650.84;;;-142.29;40.77
7748;BME280;3918;42.564;23.164;2022-08-01T09:07:44;-11650.84;;;-142.29;41.91
7748;BME280;3918;42.564;23.164;2022-08-01T09:10:10;-11650.84;;;-142.29;43.56
7748;BME280;3918;42.564;23.164;2022-08-01T09:12:37;-11650.84;;;-142.29;42.62
7748;BME280;3918;42.564;23.164;2022-08-01T09:15:05;-11650.84;;;-142.29;40.32
7748;BME280;3918;42.564;23.164;2022-08-01T09:17:40;-11650.84;;;-142.29;40.23
7748;BME280;3918;42.564;23.164;2022-08-01T09:20:08;-11650.84;;;-142.29;40.69
7748;BME280;3918;42.564;23.164;2022-08-01T09:22:48;-11650.84;;;-142.29;42.22
7748;BME280;3918;42.564;23.164;2022-08-01T09:25:15;-11650.84;;;-142.29;43.40
7748;BME280;3918;42.564;23.164;2022-08-01T09:27:42;-11650.84;;;-142.29;42.51
7748;BME280;3918;42.564;23.164;2022-08-01T09:30:11;-11650.84;;;-142.29;43.23
7748;BME280;3918;42.564;23.164;2022-08-01T09:32:56;-11650.84;;;-142.29;44.53
7748;BME280;3918;42.564;23.164;2022-08-01T09:35:27;-11650.84;;;-142.29;44.27
7748;BME280;3918;42.564;23.164;2022-08-01T09:38:11;-11650.84;;;-142.29;44.64
7748;BME280;3918;42.564;23.164;2022-08-01T09:40:47;-11650.84;;;-142.29;44.82
7748;BME280;3918;42.564;23.164;2022-08-01T09:43:14;-11650.84;;;-142.29;43.45
7748;BME280;3918;42.564;23.164;2022-08-01T09:45:41;-11650.84;;;-142.29;42.32
7748;BME280;3918;42.564;23.164;2022-08-01T09:48:10;-11650.84;;;-142.29;44.13
7748;BME280;3918;42.564;23.164;2022-08-01T09:50:40;-11650.84;;;-142.29;45.54
7748;BME280;3918;42.564;23.164;2022-08-01T09:53:08;-11650.84;;;-142.29;45.93
7748;BME280;3918;42.564;23.164;2022-08-01T09:55:35;-11650.84;;;-142.29;45.42
7748;BME280;3918;42.564;23.164;2022-08-01T09:58:03;-11650.84;;;-142.29;45.57
7748;BME280;3918;42.564;23.164;2022-08-01T10:00:30;-11650.84;;;-142.29;46.96
7748;BME280;3918;42.564;23.164;2022-08-01T10:02:58;-11650.84;;;-142.29;47.15
7748;BME280;3918;42.564;23.164;2022-08-01T10:05:34;-11650.84;;;-142.29;46.98
7748;BME280;3918;42.564;23.164;2022-08-01T10:08:03;-11650.84;;;-142.29;47.00
7748;BME280;3918;42.564;23.164;2022-08-01T10:10:31;-11650.84;;;-142.29;48.09
7748;BME280;3918;42.564;23.164;2022-08-01T10:12:59;-11650.84;;;-142.29;48.21
7748;BME280;3918;42.564;23.164;2022-08-01T10:15:27;-11650.84;;;-142.29;46.39
7748;BME280;3918;42.564;23.164;2022-08-01T10:17:55;-11650.84;;;-142.29;46.73
7748;BME280;3918;42.564;23.164;2022-08-01T10:20:25;-11650.84;;;-142.29;46.83
7748;BME280;3918;42.564;23.164;2022-08-01T10:22:54;-11650.84;;;-142.29;45.77
7748;BME280;3918;42.564;23.164;2022-08-01T10:25:22;-11650.84;;;-142.29;45.02
7748;BME280;3918;42.564;23.164;2022-08-01T10:27:50;-11650.84;;;-142.29;46.54
7748;BME280;3918;42.564;23.164;2022-08-01T10:30:20;-11650.84;;;-142.29;45.96
7748;BME280;3918;42.564;23.164;2022-08-01T10:32:47;-11650.84;;;-142.29;46.78
7748;BME280;3918;42.564;23.164;2022-08-01T10:35:15;-11650.84;;;-142.29;44.13
7748;BME280;3918;42.564;23.164;2022-08-01T10:38:09;-11650.84;;;-142.29;44.95
7748;BME280;3918;42.564;23.164;2022-08-01T10:40:37;-11650.84;;;-142.29;44.08
7748;BME280;3918;42.564;23.164;2022-08-01T10:43:04;-11650.84;;;-142.29;45.30
7748;BME280;3918;42.564;23.164;2022-08-01T10:45:31;-11650.84;;;-142.29;46.22
7748;BME280;3918;42.564;23.164;2022-08-01T10:48:03;-11650.84;;;-142.29;46.50
7748;BME280;3918;42.564;23.164;2022-08-01T10:50:37;-11650.84;;;-142.29;46.55
7748;BME280;3918;42.564;23.164;2022-08-01T10:53:14;-11650.84;;;-142.29;45.32
7748;BME280;3918;42.564;23.164;2022-08-01T10:55:49;-11650.84;;;-142.29;47.33
7748;BME280;3918;42.564;23.164;2022-08-01T10:58:24;-11650.84;;;-142.29;47.66
7748;BME280;3918;42.564;23.164;2022-08-01T11:01:17;-11650.84;;;-142.29;48.49
7748;BME280;3918;42.564;23.164;2022-08-01T11:04:04;-11650.84;;;-142.29;47.10
7748;BME280;3918;42.564;23.164;2022-08-01T11:06:51;-11650.84;;;-142.29;47.92
7748;BME280;3918;42.564;23.164;2022-08-01T11:09:30;-11650.84;;;-142.29;48.40
7748;BME280;3918;42.564;23.164;2022-08-01T11:12:03;-11650.84;;;-142.29;47.58
7748;BME280;3918;42.564;23.164;2022-08-01T11:14:34;-11650.84;;;-142.29;47.31
7748;BME280;3918;42.564;23.164;2022-08-01T11:17:30;-11650.84;;;-142.29;48.77
7748;BME280;3918;42.564;23.164;2022-08-01T11:20:06;-11650.84;;;-142.29;48.54
7748;BME280;3918;42.564;23.164;2022-08-01T11:26:12;-11650.84;;;-142.29;48.94
7748;BME280;3918;42.564;23.164;2022-08-01T11:28:39;-11650.84;;;-142.29;48.09
7748;BME280;3918;42.564;23.164;2022-08-01T11:31:29;-11650.84;;;-142.29;45.79
7748;BME280;3918;42.564;23.164;2022-08-01T11:33:56;-11650.84;;;-142.29;47.59
7748;BME280;3918;42.564;23.164;2022-08-01T11:36:23;-11650.84;;;-142.29;49.16
7748;BME280;3918;42.564;23.164;2022-08-01T11:39:11;-11650.84;;;-142.29;48.34
7748;BME280;3918;42.564;23.164;2022-08-01T11:41:40;-11650.84;;;-142.29;48.91
7748;BME280;3918;42.564;23.164;2022-08-01T11:44:08;-11650.84;;;-142.29;50.13
7748;BME280;3918;42.564;23.164;2022-08-01T11:46:49;-11650.84;;;-142.29;48.85
7748;BME280;3918;42.564;23.164;2022-08-01T11:49:44;-11650.84;;;-142.29;51.13
7748;BME280;3918;42.564;23.164;2022-08-01T11:52:13;-11650.84;;;-142.29;50.96
7748;BME280;3918;42.564;23.164;2022-08-01T11:54:42;-11650.84;;;-142.29;49.70
7748;BME280;3918;42.564;23.164;2022-08-01T11:57:12;-11650.84;;;-142.29;51.61
7748;BME280;3918;42.564;23.164;2022-08-01T11:59:41;-11650.84;;;-142.29;50.71
7748;BME280;3918;42.564;23.164;2022-08-01T12:02:18;-11650.84;;;-142.29;50.17
7748;BME280;3918;42.564;23.164;2022-08-01T12:04:48;-11650.84;;;-142.29;49.36
7748;BME280;3918;42.564;23.164;2022-08-01T12:07:15;-11650.84;;;-142.29;50.47
7748;BME280;3918;42.564;23.164;2022-08-01T12:09:42;-11650.84;;;-142.29;49.49
7748;BME280;3918;42.564;23.164;2022-08-01T12:12:12;-11650.84;;;-142.29;48.80
7748;BME280;3918;42.564;23.164;2022-08-01T12:14:42;-11650.84;;;-142.29;48.52
7748;BME280;3918;42.564;23.164;2022-08-01T12:17:09;-11650.84;;;-142.29;49.48
7748;BME280;3918;42.564;23.164;2022-08-01T12:19:36;-11650.84;;;-142.29;49.96
7748;BME280;3918;42.564;23.164;2022-08-01T12:22:05;-11650.84;;;-142.29;50.16
7748;BME280;3918;42.564;23.164;2022-08-01T12:24:33;-11650.84;;;-142.29;49.37
7748;BME280;3918;42.564;23.164;2022-08-01T12:27:00;-11650.84;;;-142.29;50.05
7748;BME280;3918;42.564;23.164;2022-08-01T12:29:36;-11650.84;;;-142.29;48.00
7748;BME280;3918;42.564;23.164;2022-08-01T12:32:04;-11650.84;;;-142.29;49.93
7748;BME280;3918;42.564;23.164;2022-08-01T12:34:31;-11650.84;;;-142.29;49.23
7748;BME280;3918;42.564;23.164;2022-08-01T12:37:00;-11650.84;;;-142.29;48.62
7748;BME280;3918;42.564;23.164;2022-08-01T12:39:34;-11650.84;;;-142.29;50.35
7748;BME280;3918;42.564;23.164;2022-08-01T12:42:05;-11650.84;;;-142.29;49.76
7748;BME280;3918;42.564;23.164;2022-08-01T12:44:34;-11650.84;;;-142.29;49.04
7748;BME280;3918;42.564;23.164;2022-08-01T12:47:01;-11650.84;;;-142.29;49.94
7748;BME280;3918;42.564;23.164;2022-08-01T12:49:29;-11650.84;;;-142.29;50.21
7748;BME280;3918;42.564;23.164;2022-08-01T12:51:57;-11650.84;;;-142.29;49.45
7748;BME280;3918;42.564;23.164;2022-08-01T12:54:24;-11650.84;;;-142.29;50.32
7748;BME280;3918;42.564;23.164;2022-08-01T12:56:51;-11650.84;;;-142.29;50.14
7748;BME280;3918;42.564;23.164;2022-08-01T12:59:20;-11650.84;;;-142.29;50.88
7748;BME280;3918;42.564;23.164;2022-08-01T13:01:49;-11650.84;;;-142.29;50.01
7748;BME280;3918;42.564;23.164;2022-08-01T13:04:16;-11650.84;;;-142.29;50.63
7748;BME280;3918;42.564;23.164;2022-08-01T13:06:43;-11650.84;;;-142.29;49.51
7748;BME280;3918;42.564;23.164;2022-08-01T13:09:10;-11650.84;;;-142.29;49.23
7748;BME280;3918;42.564;23.164;2022-08-01T13:11:39;-11650.84;;;-142.29;49.97
7748;BME280;3918;42.564;23.164;2022-08-01T13:14:06;-11650.84;;;-142.29;50.92
7748;BME280;3918;42.564;23.164;2022-08-01T13:16:45;-11650.84;;;-142.29;51.37
7748;BME280;3918;42.564;23.164;2022-08-01T13:19:14;-11650.84;;;-142.29;50.32
7748;BME280;3918;42.564;23.164;2022-08-01T13:21:54;-11650.84;;;-142.29;51.63
7748;BME280;3918;42.564;23.164;2022-08-01T13:24:26;-11650.84;;;-142.29;52.58
7748;BME280;3918;42.564;23.164;2022-08-01T13:26:55;-11650.84;;;-142.29;51.86
7748;BME280;3918;42.564;23.164;2022-08-01T13:29:29;-11650.84;;;-142.29;51.26
7748;BME280;3918;42.564;23.164;2022-08-01T13:31:57;-11650.84;;;-142.29;52.32
7748;BME280;3918;42.564;23.164;2022-08-01T13:34:33;-11650.84;;;-142.29;51.72
7748;BME280;3918;42.564;23.164;2022-08-01T13:37:01;-11650.84;;;-142.29;50.91
7748;BME280;3918;42.564;23.164;2022-08-01T13:39:28;-11650.84;;;-142.29;51.94
7748;BME280;3918;42.564;23.164;2022-08-01T13:42:07;-11650.84;;;-142.29;50.61
7748;BME280;3918;42.564;23.164;2022-08-01T13:44:34;-11650.84;;;-142.29;50.55
7748;BME280;3918;42.564;23.164;2022-08-01T13:47:02;-11650.84;;;-142.29;51.14
7748;BME280;3918;42.564;23.164;2022-08-01T13:49:29;-11650.84;;;-142.29;51.98
7748;BME280;3918;42.564;23.164;2022-08-01T13:51:57;-11650.84;;;-142.29;52.73
7748;BME280;3918;42.564;23.164;2022-08-01T13:54:24;-11650.84;;;-142.29;53.81
7748;BME280;3918;42.564;23.164;2022-08-01T13:56:52;-11650.84;;;-142.29;53.53
7748;BME280;3918;42.564;23.164;2022-08-01T13:59:19;-11650.84;;;-142.29;52.40
7748;BME280;3918;42.564;23.164;2022-08-01T14:01:46;-11650.84;;;-142.29;52.94
7748;BME280;3918;42.564;23.164;2022-08-01T14:04:14;-11650.84;;;-142.29;53.52
7748;BME280;3918;42.564;23.164;2022-08-01T14:06:41;-11650.84;;;-142.29;53.51
7748;BME280;3918;42.564;23.164;2022-08-01T14:09:09;-11650.84;;;-142.29;52.26
7748;BME280;3918;42.564;23.164;2022-08-01T14:11:36;-11650.84;;;-142.29;52.37
7748;BME280;3918;42.564;23.164;2022-08-01T14:14:03;-11650.84;;;-142.29;52.23
7748;BME280;3918;42.564;23.164;2022-08-01T14:16:30;-11650.84;;;-142.29;52.22
7748;BME280;3918;42.564;23.164;2022-08-01T14:18:56;-11650.84;;;-142.29;51.00
7748;BME280;3918;42.564;23.164;2022-08-01T14:21:23;-11650.84;;;-142.29;51.69
7748;BME280;3918;42.564;23.164;2022-08-01T14:23:50;-11650.84;;;-142.29;53.41
7748;BME280;3918;42.564;23.164;2022-08-01T14:26:22;-11650.84;;;-142.29;51.58
7748;BME280;3918;42.564;23.164;2022-08-01T14:28:49;-11650.84;;;-142.29;50.39
7748;BME280;3918;42.564;23.164;2022-08-01T14:31:16;-11650.84;;;-142.29;51.35
7748;BME280;3918;42.564;23.164;2022-08-01T14:33:43;-11650.84;;;-142.29;52.50
7748;BME280;3918;42.564;23.164;2022-08-01T14:36:10;-11650.84;;;-142.29;52.51
7748;BME280;3918;42.564;23.164;2022-08-01T14:38:36;-11650.84;;;-142.29;52.51
7748;BME280;3918;42.564;23.164;2022-08-01T14:41:03;-11650.84;;;-142.29;52.39
7748;BME280;3918;42.564;23.164;2022-08-01T14:43:31;-11650.84;;;-142.29;51.21
7748;BME280;3918;42.564;23.164;2022-08-01T14:45:58;-11650.84;;;-142.29;52.13
7748;BME280;3918;42.564;23.164;2022-08-01T14:48:25;-11650.84;;;-142.29;51.97
7748;BME280;3918;42.564;23.164;2022-08-01T14:50:52;-11650.84;;;-142.29;51.78
7748;BME280;3918;42.564;23.164;2022-08-01T14:53:19;-11650.84;;;-142.29;52.63
7748;BME280;3918;42.564;23.164;2022-08-01T14:55:46;-11650.84;;;-142.29;53.79
7748;BME280;3918;42.564;23.164;2022-08-01T14:58:13;-11650.84;;;-142.29;54.07
7748;BME280;3918;42.564;23.164;2022-08-01T15:00:41;-11650.84;;;-142.29;53.80
7748;BME280;3918;42.564;23.164;2022-08-01T15:03:08;-11650.84;;;-142.29;52.80
7748;BME280;3918;42.564;23.164;2022-08-01T15:05:35;-11650.84;;;-142.29;53.60
7748;BME280;3918;42.564;23.164;2022-08-01T15:08:02;-11650.84;;;-142.29;53.67
7748;BME280;3918;42.564;23.164;2022-08-01T15:10:29;-11650.84;;;-142.29;53.02
7748;BME280;3918;42.564;23.164;2022-08-01T15:12:57;-11650.84;;;-142.29;51.80
7748;BME280;3918;42.564;23.164;2022-08-01T15:15:25;-11650.84;;;-142.29;53.32
7748;BME280;3918;42.564;23.164;2022-08-01T15:17:53;-11650.84;;;-142.29;53.61
7748;BME280;3918;42.564;23.164;2022-08-01T15:20:20;-11650.84;;;-142.29;53.73
7748;BME280;3918;42.564;23.164;2022-08-01T15:22:47;-11650.84;;;-142.29;52.93
7748;BME280;3918;42.564;23.164;2022-08-01T15:25:14;-11650.84;;;-142.29;52.05
7748;BME280;3918;42.564;23.164;2022-08-01T15:27:41;-11650.84;;;-142.29;52.28
7748;BME280;3918;42.564;23.164;2022-08-01T15:30:08;-11650.84;;;-142.29;51.90
7748;BME280;3918;42.564;23.164;2022-08-01T15:32:35;-11650.84;;;-142.29;52.18
7748;BME280;3918;42.564;23.164;2022-08-01T15:35:04;-11650.84;;;-142.29;52.03
7748;BME280;3918;42.564;23.164;2022-08-01T15:37:31;-11650.84;;;-142.29;52.65
7748;BME280;3918;42.564;23.164;2022-08-01T15:39:58;-11650.84;;;-142.29;52.17
7748;BME280;3918;42.564;23.164;2022-08-01T15:42:25;-11650.84;;;-142.29;51.66
7748;BME280;3918;42.564;23.164;2022-08-01T15:44:51;-11650.84;;;-142.29;52.04
7748;BME280;3918;42.564;23.164;2022-08-01T15:47:18;-11650.84;;;-142.29;50.35
7748;BME280;3918;42.564;23.164;2022-08-01T15:49:45;-11650.84;;;-142.29;51.78
7748;BME280;3918;42.564;23.164;2022-08-01T15:52:13;-11650.84;;;-142.29;51.90
7748;BME280;3918;42.564;23.164;2022-08-01T15:54:40;-11650.84;;;-142.29;51.68
7748;BME280;3918;42.564;23.164;2022-08-01T15:57:07;-11650.84;;;-142.29;52.08
7748;BME280;3918;42.564;23.164;2022-08-01T15:59:34;-11650.84;;;-142.29;51.98
7748;BME280;3918;42.564;23.164;2022-08-01T16:02:02;-11650.84;;;-142.29;52.14
7748;BME280;3918;42.564;23.164;2022-08-01T16:04:29;-11650.84;;;-142.29;51.13
7748;BME280;3918;42.564;23.164;2022-08-01T16:06:56;-11650.84;;;-142.29;51.84
7748;BME280;3918;42.564;23.164;2022-08-01T16:09:24;-11650.84;;;-142.29;51.02
7748;BME280;3918;42.564;23.164;2022-08-01T16:11:50;-11650.84;;;-142.29;51.18
7748;BME280;3918;42.564;23.164;2022-08-01T16:14:17;-11650.84;;;-142.29;51.12
7748;BME280;3918;42.564;23.164;2022-08-01T16:16:45;-11650.84;;;-142.29;51.48
7748;BME280;3918;42.564;23.164;2022-08-01T16:19:12;-11650.84;;;-142.29;50.84
7748;BME280;3918;42.564;23.164;2022-08-01T16:21:39;-11650.84;;;-142.29;51.07
7748;BME280;3918;42.564;23.164;2022-08-01T16:24:06;-11650.84;;;-142.29;50.93
7748;BME280;3918;42.564;23.164;2022-08-01T16:26:34;-11650.84;;;-142.29;50.24
7748;BME280;3918;42.564;23.164;2022-08-01T16:29:01;-11650.84;;;-142.29;50.71
7748;BME280;3918;42.564;23.164;2022-08-01T16:31:28;-11650.84;;;-142.29;51.43
7748;BME280;3918;42.564;23.164;2022-08-01T16:33:56;-11650.84;;;-142.29;50.57
7748;BME280;3918;42.564;23.164;2022-08-01T16:36:23;-11650.84;;;-142.29;50.38
7748;BME280;3918;42.564;23.164;2022-08-01T16:38:49;-11650.84;;;-142.29;50.44
7748;BME280;3918;42.564;23.164;2022-08-01T16:41:16;-11650.84;;;-142.29;50.93
7748;BME280;3918;42.564;23.164;2022-08-01T16:43:44;-11650.84;;;-142.29;51.35
7748;BME280;3918;42.564;23.164;2022-08-01T16:46:11;-11650.84;;;-142.29;51.07
7748;BME280;3918;42.564;23.164;2022-08-01T16:48:38;-11650.84;;;-142.29;51.02
7748;BME280;3918;42.564;23.164;2022-08-01T16:51:06;-11650.84;;;-142.29;51.31
7748;BME280;3918;42.564;23.164;2022-08-01T16:53:32;-11650.84;;;-142.29;51.48
7748;BME280;3918;42.564;23.164;2022-08-01T16:55:59;-11650.84;;;-142.29;52.12
7748;BME280;3918;42.564;23.164;2022-08-01T16:58:26;-11650.84;;;-142.29;51.58
7748;BME280;3918;42.564;23.164;2022-08-01T17:00:54;-11650.84;;;-142.29;52.20
7748;BME280;3918;42.564;23.164;2022-08-01T17:03:21;-11650.84;;;-142.29;52.15
7748;BME280;3918;42.564;23.164;2022-08-01T17:05:48;-11650.84;;;-142.29;51.77
7748;BME280;3918;42.564;23.164;2022-08-01T17:08:15;-11650.84;;;-142.29;50.72
7748;BME280;3918;42.564;23.164;2022-08-01T17:10:42;-11650.84;;;-142.29;51.41
7748;BME280;3918;42.564;23.164;2022-08-01T17:13:09;-11650.84;;;-142.29;51.43
7748;BME280;3918;42.564;23.164;2022-08-01T17:15:36;-11650.84;;;-142.29;50.18
7748;BME280;3918;42.564;23.164;2022-08-01T17:18:06;-11650.84;;;-142.29;50.31
7748;BME280;3918;42.564;23.164;2022-08-01T17:20:33;-11650.84;;;-142.29;50.39
7748;BME280;3918;42.564;23.164;2022-08-01T17:23:00;-11650.84;;;-142.29;50.04
7748;BME280;3918;42.564;23.164;2022-08-01T17:25:27;-11650.84;;;-142.29;50.20
7748;BME280;3918;42.564;23.164;2022-08-01T17:27:54;-11650.84;;;-142.29;49.99
7748;BME280;3918;42.564;23.164;2022-08-01T17:30:21;-11650.84;;;-142.29;51.00
7748;BME280;3918;42.564;23.164;2022-08-01T17:32:48;-11650.84;;;-142.29;50.79
7748;BME280;3918;42.564;23.164;2022-08-01T17:35:16;-11650.84;;;-142.29;51.04
7748;BME280;3918;42.564;23.164;2022-08-01T17:37:43;-11650.84;;;-142.29;51.48
7748;BME280;3918;42.564;23.164;2022-08-01T17:40:11;-11650.84;;;-142.29;51.04
7748;BME280;3918;42.564;23.164;2022-08-01T17:42:38;-11650.84;;;-142.29;51.39
7748;BME280;3918;42.564;23.164;2022-08-01T17:45:07;-11650.84;;;-142.29;51.10
7748;BME280;3918;42.564;23.164;2022-08-01T17:47:34;-11650.84;;;-142.29;51.49
7748;BME280;3918;42.564;23.164;2022-08-01T17:50:01;-11650.84;;;-142.29;51.80
7748;BME280;3918;42.564;23.164;2022-08-01T17:52:30;-11650.84;;;-142.29;52.15